Time;durP1;ratioP1;P1;durP2;ratioP2;P2;SDS_P1;SDS_P2;PMS_P1;PMS_P2;Temp;Humidity;BMP_temperature;BMP_pressure;BME280_temperature;BME280_humidity;BME280_pressure;Samples;Min_cycle;Max_cycle;Signal;HPM_P1;HPM_P2
2021/03/08 00:00:38;;;;;;;8.00;4.85;;;3.00;99.90;;;;;;5090027;28;20028;-51
2021/03/08 00:03:05;;;;;;;9.70;5.85;;;2.90;99.90;;;;;;5090956;28;20524;-52
2021/03/08 00:05:31;;;;;;;11.10;6.38;;;2.90;99.90;;;;;;5090749;28;20121;-49
2021/03/08 00:07:56;;;;;;;9.38;5.78;;;2.90;99.90;;;;;;5079964;28;20032;-52
2021/03/08 00:10:22;;;;;;;8.70;5.20;;;2.90;99.90;;;;;;5074244;28;20044;-51
2021/03/08 00:12:49;;;;;;;10.45;5.30;;;2.80;99.90;;;;;;5090671;28;20039;-48
2021/03/08 00:15:16;;;;;;;10.13;5.78;;;2.80;99.90;;;;;;5090048;28;20066;-50
2021/03/08 00:17:42;;;;;;;12.90;6.50;;;2.80;99.90;;;;;;5090620;28;20108;-51
2021/03/08 00:20:10;;;;;;;10.65;5.45;;;2.70;99.90;;;;;;5089496;28;20438;-49
2021/03/08 00:22:36;;;;;;;8.82;5.53;;;2.70;99.90;;;;;;5090465;28;20020;-49
2021/03/08 00:25:07;;;;;;;12.30;5.22;;;2.70;99.90;;;;;;5093963;28;20029;-50
2021/03/08 00:27:32;;;;;;;10.65;5.40;;;2.70;99.90;;;;;;5094793;28;20077;-49
2021/03/08 00:29:58;;;;;;;13.32;5.00;;;2.70;99.90;;;;;;5093778;28;20032;-48
2021/03/08 00:32:23;;;;;;;8.77;5.00;;;2.70;99.90;;;;;;5094765;28;20418;-50
2021/03/08 00:34:49;;;;;;;9.93;4.65;;;2.60;99.90;;;;;;5094559;28;20031;-51
2021/03/08 00:37:14;;;;;;;6.93;3.53;;;2.60;99.90;;;;;;5094453;28;20024;-54
2021/03/08 00:39:41;;;;;;;7.65;4.40;;;2.60;99.90;;;;;;5073849;28;20031;-49
2021/03/08 00:42:06;;;;;;;9.52;4.97;;;2.60;99.90;;;;;;5074381;28;20021;-52
2021/03/08 00:44:32;;;;;;;7.93;3.85;;;2.60;99.90;;;;;;5073401;28;20016;-50
2021/03/08 00:46:57;;;;;;;8.23;4.63;;;2.50;99.90;;;;;;5074257;28;20037;-52
2021/03/08 00:49:22;;;;;;;8.02;3.85;;;2.50;99.90;;;;;;5074095;28;20029;-49
2021/03/08 00:51:48;;;;;;;6.55;4.00;;;2.50;99.90;;;;;;5073973;28;20028;-50
2021/03/08 00:54:13;;;;;;;10.60;4.40;;;2.50;99.90;;;;;;5074185;28;20410;-51
2021/03/08 00:56:39;;;;;;;10.25;4.97;;;2.50;99.90;;;;;;5073817;28;20037;-49
2021/03/08 00:59:04;;;;;;;10.25;4.68;;;2.50;99.90;;;;;;5073155;28;20031;-50
2021/03/08 01:01:30;;;;;;;7.15;4.28;;;2.40;99.90;;;;;;5073935;28;20090;-51
2021/03/08 01:03:55;;;;;;;7.25;4.80;;;2.40;99.90;;;;;;5073931;28;20059;-54
2021/03/08 01:06:21;;;;;;;8.00;4.45;;;2.30;99.90;;;;;;5073980;28;20029;-50
2021/03/08 01:08:46;;;;;;;9.57;5.20;;;2.30;99.90;;;;;;5073714;28;20040;-50
2021/03/08 01:11:12;;;;;;;10.82;4.95;;;2.30;99.90;;;;;;5074828;28;20024;-51
2021/03/08 01:13:37;;;;;;;7.65;3.60;;;2.30;99.90;;;;;;5074034;28;20025;-50
2021/03/08 01:16:03;;;;;;;7.22;4.13;;;2.30;99.90;;;;;;5074571;28;20119;-49
2021/03/08 01:18:29;;;;;;;6.68;3.85;;;2.30;99.90;;;;;;5075376;28;20066;-48
2021/03/08 01:20:54;;;;;;;10.35;3.63;;;2.20;99.90;;;;;;5075326;28;20033;-48
2021/03/08 01:23:20;;;;;;;11.00;4.22;;;2.20;99.90;;;;;;5075222;28;20098;-49
2021/03/08 01:25:45;;;;;;;7.60;3.58;;;2.20;99.90;;;;;;5075311;28;20027;-51
2021/03/08 01:28:11;;;;;;;6.38;3.53;;;2.10;99.90;;;;;;5074997;28;20468;-50
2021/03/08 01:30:43;;;;;;;7.85;3.70;;;2.10;99.90;;;;;;5074261;28;20105;-52
2021/03/08 01:33:09;;;;;;;7.78;3.33;;;2.00;99.90;;;;;;5075141;28;20030;-51
2021/03/08 01:35:35;;;;;;;10.75;3.15;;;2.00;99.90;;;;;;5073850;28;20028;-50
2021/03/08 01:38:02;;;;;;;6.00;3.35;;;1.90;99.90;;;;;;5074937;28;20088;-46
2021/03/08 01:40:28;;;;;;;8.20;3.45;;;1.70;99.90;;;;;;5085574;28;20032;-51
2021/03/08 01:42:55;;;;;;;5.45;2.60;;;1.60;99.90;;;;;;5095043;28;20066;-52
2021/03/08 01:45:22;;;;;;;6.93;2.90;;;1.40;99.90;;;;;;5094406;28;20036;-49
2021/03/08 01:47:48;;;;;;;6.70;3.05;;;1.30;99.90;;;;;;5095050;28;20487;-52
2021/03/08 01:50:27;;;;;;;5.80;3.13;;;1.10;99.90;;;;;;5093538;28;20464;-51
2021/03/08 01:52:53;;;;;;;5.72;2.95;;;1.00;99.90;;;;;;5074703;28;20021;-49
2021/03/08 01:55:19;;;;;;;6.40;3.10;;;0.80;99.90;;;;;;5072821;28;20548;-49
2021/03/08 01:57:45;;;;;;;4.55;2.70;;;0.70;99.90;;;;;;5074568;28;20025;-52
2021/03/08 02:00:12;;;;;;;7.55;3.20;;;0.60;99.90;;;;;;5073853;28;20047;-51
2021/03/08 02:02:38;;;;;;;7.43;2.90;;;0.40;99.90;;;;;;5074511;28;20418;-50
2021/03/08 02:05:07;;;;;;;6.97;2.97;;;0.30;99.90;;;;;;5074692;28;20070;-52
2021/03/08 02:07:32;;;;;;;6.03;2.58;;;0.20;99.90;;;;;;5074620;28;20074;-50
2021/03/08 02:09:58;;;;;;;7.85;2.88;;;0.10;99.90;;;;;;5074456;28;20032;-49
2021/03/08 02:12:43;;;;;;;7.07;3.55;;;0.00;99.90;;;;;;5074328;28;20024;-49
2021/03/08 02:15:31;;;;;;;7.50;3.22;;;-0.10;99.90;;;;;;5073530;28;20063;-53
2021/03/08 02:18:25;;;;;;;9.10;3.33;;;-0.10;99.90;;;;;;5074330;28;20024;-48
2021/03/08 02:21:18;;;;;;;8.05;3.50;;;-0.20;99.90;;;;;;5062301;28;20032;-52
2021/03/08 02:24:21;;;;;;;11.52;3.38;;;-0.40;99.90;;;;;;5074024;28;20016;-49
2021/03/08 02:27:03;;;;;;;6.43;3.17;;;-0.50;99.90;;;;;;5074282;28;20052;-52
2021/03/08 02:29:49;;;;;;;9.43;3.63;;;-0.60;99.90;;;;;;5073224;28;20541;-52
2021/03/08 02:32:17;;;;;;;;;;;-0.70;99.90;;;;;;5074596;28;20059;-54
2021/03/08 02:35:03;;;;;;;7.63;3.45;;;-0.80;99.90;;;;;;5074185;28;20307;-51
2021/03/08 02:37:32;;;;;;;8.02;3.45;;;-0.90;99.90;;;;;;5073838;28;20028;-48
2021/03/08 02:40:16;;;;;;;9.23;2.72;;;-0.90;99.90;;;;;;5080129;28;20058;-50
2021/03/08 02:42:47;;;;;;;9.43;3.15;;;-1.00;99.90;;;;;;5094013;28;20026;-52
2021/03/08 02:45:15;;;;;;;6.32;3.08;;;-1.00;99.90;;;;;;5093138;28;20017;-48
2021/03/08 02:47:46;;;;;;;6.78;3.13;;;-1.10;99.90;;;;;;5093887;28;20078;-49
2021/03/08 02:50:13;;;;;;;6.95;3.00;;;-1.10;99.90;;;;;;5092677;28;20032;-50
2021/03/08 02:52:45;;;;;;;6.20;3.15;;;-1.10;99.90;;;;;;5073586;28;20052;-53
2021/03/08 02:55:12;;;;;;;5.40;2.50;;;-1.20;99.90;;;;;;5073436;28;20052;-50
2021/03/08 02:57:41;;;;;;;7.60;2.58;;;-1.30;99.90;;;;;;5073427;28;20028;-51
2021/03/08 03:00:10;;;;;;;15.65;2.67;;;-1.30;99.90;;;;;;5072493;28;20039;-51
2021/03/08 03:02:39;;;;;;;10.07;2.85;;;-1.40;99.90;;;;;;5073347;28;20027;-51
2021/03/08 03:05:07;;;;;;;7.25;2.78;;;-1.40;99.90;;;;;;5073474;28;20100;-50
2021/03/08 03:07:35;;;;;;;7.53;2.95;;;-1.50;99.90;;;;;;5073276;28;20021;-49
2021/03/08 03:10:03;;;;;;;7.18;2.80;;;-1.60;99.90;;;;;;5072118;28;20103;-50
2021/03/08 03:12:29;;;;;;;6.53;2.30;;;-1.70;99.90;;;;;;5073187;28;20528;-50
2021/03/08 03:14:56;;;;;;;6.70;2.30;;;-1.80;99.90;;;;;;5072215;28;20099;-48
2021/03/08 03:17:23;;;;;;;8.23;3.22;;;-1.80;99.90;;;;;;5071882;28;20496;-48
2021/03/08 03:19:51;;;;;;;6.72;2.72;;;-1.90;99.90;;;;;;5073187;28;20021;-53
2021/03/08 03:22:21;;;;;;;6.18;2.13;;;-2.00;99.90;;;;;;5072890;28;20028;-52
2021/03/08 03:24:49;;;;;;;8.00;2.70;;;-2.00;99.90;;;;;;5073121;28;20023;-52
2021/03/08 03:27:16;;;;;;;5.22;2.38;;;-2.10;99.90;;;;;;5071648;28;20025;-50
2021/03/08 03:29:43;;;;;;;10.48;2.72;;;-2.10;99.90;;;;;;5072131;28;20391;-51
2021/03/08 03:32:10;;;;;;;7.30;2.35;;;-2.20;99.90;;;;;;5072757;28;20476;-49
2021/03/08 03:34:36;;;;;;;5.60;2.60;;;-2.20;99.90;;;;;;5072877;28;20066;-53
2021/03/08 03:37:02;;;;;;;6.95;2.47;;;-2.30;99.90;;;;;;5072735;28;20029;-48
2021/03/08 03:39:29;;;;;;;5.78;2.70;;;-2.30;99.90;;;;;;5075127;28;20029;-48
2021/03/08 03:41:55;;;;;;;13.10;3.20;;;-2.40;99.90;;;;;;5092948;28;20027;-52
2021/03/08 03:44:21;;;;;;;5.90;2.65;;;-2.50;99.90;;;;;;5091886;28;20573;-53
2021/03/08 03:46:47;;;;;;;9.32;3.20;;;-2.50;99.90;;;;;;5091198;28;20063;-52
2021/03/08 03:49:14;;;;;;;6.38;2.38;;;-2.50;99.90;;;;;;5092738;28;20099;-52
2021/03/08 03:51:40;;;;;;;10.02;2.47;;;-2.60;99.90;;;;;;5079413;28;20024;-50
2021/03/08 03:54:06;;;;;;;8.13;2.85;;;-2.70;99.90;;;;;;5072388;28;20044;-50
2021/03/08 03:56:32;;;;;;;5.45;2.15;;;-2.70;99.90;;;;;;5072602;28;20032;-49
2021/03/08 03:59:18;;;;;;;5.85;2.10;;;-2.80;99.90;;;;;;5071008;28;20020;-48
2021/03/08 04:02:01;;;;;;;9.57;3.00;;;-2.80;99.90;;;;;;5072385;28;20048;-51
2021/03/08 04:04:34;;;;;;;3.95;2.30;;;-2.90;99.90;;;;;;5072436;28;20112;-52
2021/03/08 04:07:03;;;;;;;7.03;2.50;;;-2.90;99.90;;;;;;5072515;28;20028;-52
2021/03/08 04:09:30;;;;;;;9.25;3.28;;;-3.00;99.90;;;;;;5072482;28;20033;-49
2021/03/08 04:11:58;;;;;;;5.95;2.40;;;-3.00;99.90;;;;;;5071084;28;20029;-49
2021/03/08 04:14:25;;;;;;;8.73;2.35;;;-3.00;99.90;;;;;;5071297;28;20051;-52
2021/03/08 04:16:53;;;;;;;8.95;2.75;;;-3.00;99.90;;;;;;5072329;28;20532;-53
2021/03/08 04:19:22;;;;;;;6.47;2.20;;;-3.00;99.90;;;;;;5072277;28;20021;-53
2021/03/08 04:21:50;;;;;;;5.68;2.40;;;-3.10;99.90;;;;;;5071134;28;20020;-54
2021/03/08 04:24:18;;;;;;;7.90;2.38;;;-3.10;99.90;;;;;;5070967;28;20028;-52
2021/03/08 04:26:45;;;;;;;5.00;2.17;;;-3.10;99.90;;;;;;5072126;28;20020;-52
2021/03/08 04:29:11;;;;;;;7.55;3.15;;;-3.10;99.90;;;;;;5071297;28;20032;-50
2021/03/08 04:31:37;;;;;;;6.03;2.67;;;-3.20;99.90;;;;;;5072227;28;20025;-51
2021/03/08 04:34:05;;;;;;;9.07;2.58;;;-3.20;99.90;;;;;;5072148;28;20035;-51
2021/03/08 04:36:31;;;;;;;5.82;2.58;;;-3.20;99.90;;;;;;5072126;28;20033;-52
2021/03/08 04:38:57;;;;;;;8.63;2.75;;;-3.20;99.90;;;;;;5072188;28;20032;-52
2021/03/08 04:41:26;;;;;;;6.20;2.47;;;-3.30;99.90;;;;;;5090398;28;20059;-51
2021/03/08 04:43:53;;;;;;;9.05;3.10;;;-3.30;99.90;;;;;;5091462;28;20012;-52
2021/03/08 04:46:19;;;;;;;6.45;2.80;;;-3.30;99.90;;;;;;5092269;28;20077;-53
2021/03/08 04:48:47;;;;;;;6.30;2.78;;;-3.40;99.90;;;;;;5092312;28;20437;-48
2021/03/08 04:51:12;;;;;;;5.97;2.65;;;-3.40;99.90;;;;;;5092250;28;20032;-52
2021/03/08 04:53:40;;;;;;;5.22;2.80;;;-3.40;99.90;;;;;;5092075;28;20109;-53
2021/03/08 04:56:06;;;;;;;5.28;2.20;;;-3.50;99.90;;;;;;5092194;28;20051;-48
2021/03/08 04:58:33;;;;;;;9.25;3.28;;;-3.50;99.90;;;;;;5092279;28;20063;-48
2021/03/08 05:00:59;;;;;;;8.25;2.63;;;-3.60;99.90;;;;;;5091191;28;20069;-51
2021/03/08 05:03:26;;;;;;;6.82;3.05;;;-3.60;99.90;;;;;;5092043;28;20052;-48
2021/03/08 05:05:53;;;;;;;4.97;2.88;;;-3.60;99.90;;;;;;5092215;28;20028;-50
2021/03/08 05:08:20;;;;;;;5.13;3.13;;;-3.70;99.90;;;;;;5091954;28;20032;-52
2021/03/08 05:10:47;;;;;;;5.68;3.35;;;-3.70;99.90;;;;;;5078762;28;20029;-50
2021/03/08 05:13:15;;;;;;;5.88;3.08;;;-3.80;99.90;;;;;;5075167;28;20037;-49
2021/03/08 05:15:41;;;;;;;6.60;3.20;;;-3.80;99.90;;;;;;5074345;28;20033;-52
2021/03/08 05:18:07;;;;;;;8.82;2.40;;;-3.80;99.90;;;;;;5075209;28;20048;-49
2021/03/08 05:20:36;;;;;;;7.32;2.60;;;-3.90;99.90;;;;;;5075333;28;20420;-51
2021/03/08 05:23:02;;;;;;;6.50;2.80;;;-4.00;99.90;;;;;;5074957;28;20025;-50
2021/03/08 05:25:28;;;;;;;7.03;2.67;;;-4.00;99.90;;;;;;5075143;28;20029;-47
2021/03/08 05:27:55;;;;;;;8.18;2.50;;;-4.10;99.90;;;;;;5073784;28;20480;-49
2021/03/08 05:30:23;;;;;;;8.70;3.15;;;-4.10;99.90;;;;;;5074193;28;20093;-52
2021/03/08 05:33:02;;;;;;;6.90;2.92;;;-4.10;99.90;;;;;;5074980;28;20024;-54
2021/03/08 05:35:29;;;;;;;5.43;2.90;;;-4.20;99.90;;;;;;5075151;28;20028;-52
2021/03/08 05:37:56;;;;;;;9.48;2.85;;;-4.20;99.90;;;;;;5075141;28;20032;-51
2021/03/08 05:40:28;;;;;;;11.18;2.83;;;-4.20;99.90;;;;;;5084652;28;20047;-53
2021/03/08 05:43:04;;;;;;;7.82;3.10;;;-4.20;99.90;;;;;;5095341;28;20024;-51
2021/03/08 05:45:33;;;;;;;;;;;-4.20;99.90;;;;;;5094794;28;20518;-55
2021/03/08 05:48:23;;;;;;;7.85;2.47;;;-4.20;99.90;;;;;;5095014;28;20220;-53
2021/03/08 05:51:26;;;;;;;6.60;2.55;;;-4.20;99.90;;;;;;5088836;28;20032;-55
2021/03/08 05:54:02;;;;;;;3.75;1.80;;;-4.10;99.90;;;;;;5073398;28;20053;-54
2021/03/08 05:56:55;;;;;;;6.63;1.90;;;-4.10;99.90;;;;;;5074403;28;20123;-54
2021/03/08 05:59:20;;;;;;;6.53;2.28;;;-4.10;99.90;;;;;;5050879;28;20036;-51
2021/03/08 06:02:36;;;;;;;6.38;2.53;;;-4.10;99.90;;;;;;5053238;28;20033;-51
2021/03/08 06:05:58;;;;;;;5.68;2.35;;;-4.00;99.90;;;;;;5045180;28;20037;-50
2021/03/08 06:08:27;;;;;;;5.50;2.55;;;-3.90;99.90;;;;;;5052426;28;20088;-51
2021/03/08 06:11:06;;;;;;;8.88;3.17;;;-3.90;99.90;;;;;;5054404;28;20109;-50
2021/03/08 06:13:39;;;;;;;8.90;2.70;;;-3.80;99.90;;;;;;5053974;28;20025;-53
2021/03/08 06:16:08;;;;;;;10.75;2.75;;;-3.80;99.90;;;;;;5053819;28;20058;-51
2021/03/08 06:18:43;;;;;;;6.00;2.90;;;-3.70;99.90;;;;;;5054175;28;20475;-51
2021/03/08 06:21:09;;;;;;;7.73;3.03;;;-3.20;99.90;;;;;;5053866;28;20036;-52
2021/03/08 06:23:36;;;;;;;7.80;3.15;;;-2.40;99.90;;;;;;5054111;28;20325;-51
2021/03/08 06:26:04;;;;;;;6.95;2.50;;;-1.30;99.90;;;;;;5054559;28;20037;-54
2021/03/08 06:28:30;;;;;;;3.25;2.10;;;-0.10;99.90;;;;;;5054314;28;20119;-54
2021/03/08 06:30:57;;;;;;;4.28;2.38;;;1.10;99.90;;;;;;5053132;28;20035;-53
2021/03/08 06:33:22;;;;;;;7.30;2.63;;;2.10;99.90;;;;;;5053807;28;20473;-48
2021/03/08 06:35:50;;;;;;;4.63;2.35;;;3.10;99.90;;;;;;5054070;28;20024;-52
2021/03/08 06:38:16;;;;;;;4.00;2.65;;;4.10;99.90;;;;;;5054126;28;20465;-51
2021/03/08 06:40:42;;;;;;;3.35;1.95;;;4.90;99.90;;;;;;5079129;28;20056;-54
2021/03/08 06:43:07;;;;;;;4.82;1.75;;;5.60;99.90;;;;;;5094293;28;20039;-48
2021/03/08 06:45:33;;;;;;;5.50;2.85;;;6.30;99.90;;;;;;5092895;28;20024;-49
2021/03/08 06:47:58;;;;;;;5.13;2.95;;;6.90;98.10;;;;;;5094288;28;20497;-50
2021/03/08 06:50:24;;;;;;;4.07;2.47;;;7.60;96.70;;;;;;5090958;28;20400;-49
2021/03/08 06:52:49;;;;;;;3.92;2.78;;;8.10;94.70;;;;;;5073874;28;20028;-52
2021/03/08 06:55:20;;;;;;;5.43;2.60;;;8.70;93.00;;;;;;5073567;28;20041;-49
2021/03/08 06:57:46;;;;;;;3.20;1.75;;;9.30;91.70;;;;;;5073814;28;20024;-49
2021/03/08 07:00:13;;;;;;;5.18;2.40;;;9.80;87.10;;;;;;5072405;28;20399;-48
2021/03/08 07:02:45;;;;;;;3.10;1.85;;;10.30;86.30;;;;;;5073691;28;20234;-49
2021/03/08 07:05:20;;;;;;;2.47;1.60;;;10.80;79.70;;;;;;5073202;28;20018;-50
2021/03/08 07:07:53;;;;;;;3.00;1.30;;;11.20;80.80;;;;;;5073681;28;20029;-52
2021/03/08 07:10:37;;;;;;;2.88;1.52;;;11.50;77.70;;;;;;5072393;28;20027;-50
2021/03/08 07:13:07;;;;;;;2.58;1.42;;;11.80;73.70;;;;;;5073471;28;20047;-51
2021/03/08 07:15:33;;;;;;;2.20;1.40;;;12.00;75.00;;;;;;5071893;28;20044;-52
2021/03/08 07:17:59;;;;;;;2.75;1.75;;;12.20;70.80;;;;;;5073421;28;20475;-53
2021/03/08 07:20:27;;;;;;;4.22;1.50;;;12.10;71.40;;;;;;5073132;28;20032;-51
2021/03/08 07:22:54;;;;;;;2.35;1.33;;;12.40;72.90;;;;;;5071964;28;20052;-54
2021/03/08 07:25:24;;;;;;;2.85;1.50;;;12.60;72.80;;;;;;5073080;28;20025;-50
2021/03/08 07:27:52;;;;;;;3.33;1.55;;;12.90;72.80;;;;;;5073255;28;20024;-52
2021/03/08 07:30:29;;;;;;;1.73;1.02;;;13.20;71.20;;;;;;5071722;28;20380;-48
2021/03/08 07:33:04;;;;;;;2.00;1.33;;;13.50;69.30;;;;;;5072459;28;20052;-50
2021/03/08 07:35:41;;;;;;;4.40;1.55;;;13.80;69.70;;;;;;5072712;28;20527;-49
2021/03/08 07:38:09;;;;;;;2.40;1.80;;;13.70;64.90;;;;;;5073177;28;20331;-52
2021/03/08 07:40:37;;;;;;;2.35;1.58;;;13.80;66.30;;;;;;5084354;28;20104;-53
2021/03/08 07:43:02;;;;;;;3.20;1.38;;;14.00;65.30;;;;;;5093320;28;20035;-50
2021/03/08 07:45:42;;;;;;;3.20;1.52;;;14.20;65.60;;;;;;5091874;28;20383;-52
2021/03/08 07:48:10;;;;;;;2.42;1.77;;;14.30;56.50;;;;;;5093286;28;20352;-53
2021/03/08 07:50:36;;;;;;;3.22;1.40;;;14.30;65.20;;;;;;5088422;28;20456;-51
2021/03/08 07:53:01;;;;;;;2.90;1.38;;;14.20;62.20;;;;;;5072827;28;20047;-50
2021/03/08 07:55:37;;;;;;;3.03;1.27;;;14.00;59.80;;;;;;5072439;28;20048;-50
2021/03/08 07:58:04;;;;;;;3.28;1.50;;;14.10;58.90;;;;;;5072929;28;20048;-51
2021/03/08 08:00:30;;;;;;;1.58;1.08;;;14.20;60.20;;;;;;5071307;28;20100;-51
2021/03/08 08:03:00;;;;;;;2.05;1.20;;;14.20;55.30;;;;;;5072810;28;20541;-53
2021/03/08 08:05:26;;;;;;;5.03;1.48;;;14.20;60.10;;;;;;5072431;28;20025;-52
2021/03/08 08:07:54;;;;;;;2.50;1.17;;;14.40;59.20;;;;;;5072692;28;20070;-49
2021/03/08 08:10:20;;;;;;;2.47;1.02;;;14.50;58.10;;;;;;5072596;28;20029;-50
2021/03/08 08:12:50;;;;;;;3.30;1.30;;;14.70;58.80;;;;;;5072705;28;20032;-49
2021/03/08 08:15:17;;;;;;;2.33;1.30;;;14.60;56.90;;;;;;5071302;28;20048;-51
2021/03/08 08:17:46;;;;;;;2.65;1.40;;;14.80;59.20;;;;;;5072658;28;20025;-52
2021/03/08 08:20:14;;;;;;;3.08;1.42;;;15.00;58.30;;;;;;5072633;28;20371;-52
2021/03/08 08:23:00;;;;;;;2.83;1.10;;;14.70;54.90;;;;;;5072502;28;20028;-49
2021/03/08 08:25:27;;;;;;;;;;;14.70;50.70;;;;;;5071305;28;20033;-52
2021/03/08 08:27:53;;;;;;;;;;;14.70;49.10;;;;;;5073274;28;19904;-51
2021/03/08 08:30:22;;;;;;;1.17;0.75;;;14.80;47.60;;;;;;5071104;28;20355;-50
2021/03/08 08:32:53;;;;;;;2.10;0.80;;;14.80;52.50;;;;;;5072368;28;20032;-48
2021/03/08 08:35:22;;;;;;;3.38;0.68;;;14.90;55.20;;;;;;5072272;28;20073;-52
2021/03/08 08:38:06;;;;;;;1.50;0.68;;;15.10;53.80;;;;;;5072272;28;20375;-47
2021/03/08 08:40:32;;;;;;;2.30;1.10;;;15.10;46.30;;;;;;5083345;28;20020;-49
2021/03/08 08:43:16;;;;;;;2.40;1.00;;;15.10;52.80;;;;;;5072804;28;20067;-48
2021/03/08 08:45:43;;;;;;;1.90;0.60;;;14.80;45.90;;;;;;5073779;28;20029;-48
2021/03/08 08:48:10;;;;;;;1.38;0.80;;;15.10;52.60;;;;;;5075862;28;20029;-52
2021/03/08 08:50:53;;;;;;;1.05;0.50;;;14.80;51.30;;;;;;5075209;28;20028;-49
2021/03/08 08:53:30;;;;;;;1.65;0.77;;;14.60;49.00;;;;;;5075934;28;20017;-50
2021/03/08 08:55:56;;;;;;;2.40;0.70;;;14.50;47.50;;;;;;5075908;28;20041;-53
2021/03/08 08:58:26;;;;;;;0.68;0.60;;;14.40;47.40;;;;;;5076234;28;20024;-51
2021/03/08 09:01:19;;;;;;;1.08;0.60;;;14.40;48.70;;;;;;5074684;28;20063;-48
2021/03/08 09:04:01;;;;;;;5.03;0.70;;;14.40;46.30;;;;;;5075781;28;20012;-50
2021/03/08 09:07:02;;;;;;;1.08;0.50;;;14.30;43.40;;;;;;5075715;28;20526;-52
2021/03/08 09:09:30;;;;;;;2.20;0.57;;;14.00;42.20;;;;;;5072390;28;20115;-51
2021/03/08 09:11:56;;;;;;;0.77;0.45;;;13.70;46.00;;;;;;5061232;28;20115;-49
2021/03/08 09:14:27;;;;;;;2.85;0.60;;;13.60;46.00;;;;;;5073207;28;20112;-50
2021/03/08 09:17:09;;;;;;;1.50;0.50;;;13.80;45.20;;;;;;5069522;28;20064;-55
2021/03/08 09:19:36;;;;;;;2.35;0.60;;;14.10;43.70;;;;;;5061893;28;20036;-52
2021/03/08 09:22:20;;;;;;;1.40;0.60;;;14.00;40.10;;;;;;5062826;28;20037;-51
2021/03/08 09:24:47;;;;;;;1.20;0.50;;;13.90;38.70;;;;;;5054317;28;20021;-54
2021/03/08 09:27:23;;;;;;;7.32;1.10;;;13.80;44.20;;;;;;5055397;28;20029;-51
2021/03/08 09:29:49;;;;;;;1.42;0.57;;;13.70;40.40;;;;;;5054349;28;20032;-51
2021/03/08 09:32:16;;;;;;;1.02;0.65;;;13.40;42.60;;;;;;5055415;28;20025;-52
2021/03/08 09:34:42;;;;;;;2.50;0.52;;;13.30;43.40;;;;;;5055447;28;20029;-52
2021/03/08 09:37:08;;;;;;;1.40;0.60;;;13.30;43.00;;;;;;5055174;28;20064;-51
2021/03/08 09:39:50;;;;;;;1.08;0.45;;;13.20;42.70;;;;;;5061427;28;20028;-51
2021/03/08 09:42:16;;;;;;;0.98;0.63;;;13.20;41.30;;;;;;5095525;28;20426;-53
2021/03/08 09:44:42;;;;;;;1.77;0.60;;;13.30;42.80;;;;;;5094220;28;20099;-54
2021/03/08 09:47:08;;;;;;;1.00;0.55;;;13.20;42.20;;;;;;5095457;28;20494;-50
2021/03/08 09:49:51;;;;;;;0.98;0.47;;;12.90;40.10;;;;;;5095488;28;20032;-48
2021/03/08 09:52:42;;;;;;;2.65;1.23;;;12.60;37.90;;;;;;5076475;28;20055;-51
2021/03/08 09:55:10;;;;;;;1.27;0.52;;;12.60;39.40;;;;;;5074956;28;20131;-51
2021/03/08 09:57:40;;;;;;;0.75;0.40;;;12.50;41.30;;;;;;5073989;28;20408;-50
2021/03/08 10:00:08;;;;;;;2.20;0.90;;;12.40;41.30;;;;;;5073749;28;20024;-51
2021/03/08 10:02:34;;;;;;;1.38;0.52;;;12.30;41.20;;;;;;5074590;28;20379;-50
2021/03/08 10:05:00;;;;;;;2.05;0.88;;;12.00;41.30;;;;;;5075089;28;20021;-48
2021/03/08 10:07:26;;;;;;;1.48;0.40;;;11.70;40.10;;;;;;5074840;28;20464;-53
2021/03/08 10:10:13;;;;;;;3.78;0.60;;;11.40;40.20;;;;;;5074714;28;20159;-50
2021/03/08 10:12:40;;;;;;;1.77;0.60;;;11.40;39.30;;;;;;5074581;28;20033;-52
2021/03/08 10:15:08;;;;;;;0.90;0.50;;;11.20;40.30;;;;;;5073405;28;20027;-51
2021/03/08 10:17:35;;;;;;;0.80;0.38;;;11.10;41.60;;;;;;5074463;28;20495;-47
2021/03/08 10:20:04;;;;;;;1.48;0.40;;;11.00;41.30;;;;;;5074696;28;20059;-49
2021/03/08 10:22:38;;;;;;;0.82;0.35;;;10.80;41.90;;;;;;5074543;28;20418;-52
2021/03/08 10:25:27;;;;;;;1.05;0.45;;;10.50;40.30;;;;;;5074383;28;20017;-47
2021/03/08 10:27:54;;;;;;;1.65;0.28;;;10.20;40.40;;;;;;5074332;28;20035;-50
2021/03/08 10:30:21;;;;;;;1.98;0.65;;;10.00;41.90;;;;;;5073255;28;20086;-49
2021/03/08 10:32:48;;;;;;;1.10;0.43;;;9.80;42.10;;;;;;5074227;28;20025;-49
2021/03/08 10:35:14;;;;;;;1.00;0.40;;;9.20;42.30;;;;;;5074307;28;20078;-52
2021/03/08 10:37:41;;;;;;;1.33;0.50;;;8.70;43.10;;;;;;5074040;28;20031;-49
2021/03/08 10:40:08;;;;;;;1.15;0.40;;;8.40;43.70;;;;;;5081694;28;20475;-52
2021/03/08 10:42:36;;;;;;;2.00;0.88;;;8.20;44.70;;;;;;5094329;28;20125;-48
2021/03/08 10:45:04;;;;;;;1.05;0.45;;;7.90;44.10;;;;;;5093144;28;20024;-53
2021/03/08 10:47:30;;;;;;;0.85;0.63;;;7.80;44.80;;;;;;5094352;28;20024;-50
2021/03/08 10:49:55;;;;;;;1.55;0.45;;;7.50;43.60;;;;;;5094291;28;20028;-50
2021/03/08 10:52:22;;;;;;;1.73;0.63;;;7.30;45.00;;;;;;5074913;28;20464;-46
2021/03/08 10:54:48;;;;;;;1.23;0.60;;;7.10;45.00;;;;;;5073508;28;20166;-48
2021/03/08 10:57:15;;;;;;;1.67;0.65;;;6.90;45.70;;;;;;5073770;28;20042;-52
2021/03/08 10:59:54;;;;;;;1.77;1.33;;;6.80;46.10;;;;;;5072540;28;20035;-52
2021/03/08 11:02:20;;;;;;;2.30;1.65;;;6.60;45.70;;;;;;5073716;28;20032;-50
2021/03/08 11:04:48;;;;;;;3.03;0.82;;;6.50;45.90;;;;;;5073702;28;20081;-51
2021/03/08 11:07:14;;;;;;;2.60;0.90;;;6.30;46.00;;;;;;5073424;28;20138;-47
2021/03/08 11:09:45;;;;;;;1.13;0.60;;;6.20;46.80;;;;;;5071559;28;20036;-49
2021/03/08 11:12:19;;;;;;;1.27;0.68;;;6.10;46.10;;;;;;5073541;28;20035;-52
2021/03/08 11:14:46;;;;;;;2.72;0.70;;;6.00;45.80;;;;;;5072290;28;20376;-49
2021/03/08 11:17:12;;;;;;;1.52;0.40;;;5.90;46.20;;;;;;5073351;28;20028;-48
2021/03/08 11:19:37;;;;;;;2.83;1.40;;;5.80;47.00;;;;;;5073432;28;20039;-51
2021/03/08 11:22:07;;;;;;;3.83;1.15;;;5.70;47.50;;;;;;5073247;28;20472;-49
2021/03/08 11:24:40;;;;;;;8.85;6.15;;;5.80;46.80;;;;;;5073258;28;20076;-52
2021/03/08 11:27:10;;;;;;;3.13;2.25;;;5.80;47.00;;;;;;5073262;28;20487;-50
2021/03/08 11:29:36;;;;;;;3.03;1.20;;;5.70;46.80;;;;;;5072209;28;20480;-49
2021/03/08 11:32:02;;;;;;;1.42;1.05;;;5.70;47.10;;;;;;5073204;28;20427;-50
2021/03/08 11:34:41;;;;;;;1.92;0.70;;;5.70;47.50;;;;;;5073108;28;20486;-50
2021/03/08 11:37:14;;;;;;;0.60;0.57;;;5.70;47.80;;;;;;5072925;28;20464;-48
2021/03/08 11:39:42;;;;;;;2.00;0.55;;;5.80;47.40;;;;;;5076953;28;20032;-52
2021/03/08 11:42:08;;;;;;;0.65;0.40;;;5.80;46.60;;;;;;5093155;28;20074;-49
2021/03/08 11:44:34;;;;;;;1.50;0.40;;;5.70;46.30;;;;;;5092024;28;20402;-52
2021/03/08 11:47:00;;;;;;;0.40;0.35;;;5.70;46.90;;;;;;5092940;28;20032;-49
2021/03/08 11:49:25;;;;;;;2.35;0.75;;;5.70;47.00;;;;;;5093090;28;20037;-48
2021/03/08 11:51:51;;;;;;;1.63;0.57;;;5.70;47.40;;;;;;5078204;28;20028;-47
2021/03/08 11:54:16;;;;;;;1.58;0.70;;;5.60;47.30;;;;;;5072740;28;20430;-51
2021/03/08 11:56:42;;;;;;;1.30;0.50;;;5.60;47.60;;;;;;5072802;28;20093;-49
2021/03/08 11:59:08;;;;;;;1.65;0.50;;;5.60;47.70;;;;;;5071884;28;20028;-48
2021/03/08 12:01:34;;;;;;;1.02;0.32;;;5.60;47.80;;;;;;5072799;28;20021;-50
2021/03/08 12:04:00;;;;;;;3.45;0.68;;;5.60;48.20;;;;;;5072725;28;20021;-49
2021/03/08 12:06:25;;;;;;;2.38;0.60;;;5.70;47.50;;;;;;5072796;28;20077;-50
2021/03/08 12:08:51;;;;;;;1.20;0.50;;;5.60;46.70;;;;;;5072684;28;20040;-48
2021/03/08 12:11:16;;;;;;;1.83;0.40;;;5.70;46.40;;;;;;5072679;28;20550;-49
2021/03/08 12:13:42;;;;;;;3.38;0.68;;;5.60;46.70;;;;;;5071643;28;20037;-52
2021/03/08 12:16:07;;;;;;;0.65;0.40;;;5.70;46.50;;;;;;5072435;28;20086;-51
2021/03/08 12:18:32;;;;;;;3.13;0.45;;;5.70;46.70;;;;;;5072383;28;20020;-48
2021/03/08 12:20:58;;;;;;;1.08;0.55;;;5.70;46.70;;;;;;5071543;28;20031;-50
2021/03/08 12:23:24;;;;;;;0.30;0.28;;;5.70;47.20;;;;;;5071961;28;20051;-50
2021/03/08 12:25:49;;;;;;;0.45;0.45;;;5.70;47.20;;;;;;5070279;28;20024;-49
2021/03/08 12:28:14;;;;;;;2.17;0.70;;;5.80;47.40;;;;;;5070609;28;20029;-49
2021/03/08 12:30:40;;;;;;;1.05;0.30;;;5.90;47.10;;;;;;5070187;28;20475;-52
2021/03/08 12:33:05;;;;;;;0.75;0.40;;;6.00;47.10;;;;;;5071609;28;20107;-50
2021/03/08 12:35:31;;;;;;;2.22;0.50;;;6.10;46.80;;;;;;5071950;28;20103;-47
2021/03/08 12:37:57;;;;;;;1.27;0.30;;;6.10;46.40;;;;;;5071728;28;20035;-50
2021/03/08 12:40:22;;;;;;;1.02;0.30;;;6.10;46.50;;;;;;5082189;28;20012;-48
2021/03/08 12:42:48;;;;;;;0.85;0.40;;;6.10;46.20;;;;;;5092297;28;20383;-49
2021/03/08 12:45:14;;;;;;;2.03;0.30;;;6.10;45.30;;;;;;5091205;28;20413;-48
2021/03/08 12:47:39;;;;;;;0.50;0.35;;;6.10;45.50;;;;;;5092661;28;20024;-51
2021/03/08 12:50:06;;;;;;;0.95;0.52;;;6.10;45.40;;;;;;5092384;28;20024;-49
2021/03/08 12:52:31;;;;;;;1.10;0.60;;;6.10;45.40;;;;;;5072354;28;20025;-48
2021/03/08 12:54:57;;;;;;;0.30;0.30;;;6.10;45.00;;;;;;5072016;28;20056;-50
2021/03/08 12:57:22;;;;;;;0.50;0.35;;;6.10;44.90;;;;;;5071881;28;20036;-51
2021/03/08 12:59:48;;;;;;;0.32;0.32;;;6.10;44.90;;;;;;5070513;28;20027;-51
2021/03/08 13:02:13;;;;;;;0.43;0.25;;;6.10;45.00;;;;;;5071830;28;20020;-52